Time;durP1;ratioP1;P1;durP2;ratioP2;P2;SDS_P1;SDS_P2;PMS_P1;PMS_P2;Temp;Humidity;BMP_temperature;BMP_pressure;BME280_temperature;BME280_humidity;BME280_pressure;Samples;Min_cycle;Max_cycle;Signal;HPM_P1;HPM_P2
2022/05/06 00:04:36;;;;;;;16.15;8.13;;;16.00;76.10;;;;;;10450872;28;20395;-56
2022/05/06 00:09:38;;;;;;;15.60;7.68;;;16.00;76.20;;;;;;10450938;28;20045;-55
2022/05/06 00:14:39;;;;;;;14.32;7.80;;;15.90;76.20;;;;;;10450849;28;20519;-56
2022/05/06 00:19:42;;;;;;;16.10;7.38;;;15.90;76.30;;;;;;10445807;28;20415;-56
2022/05/06 00:24:44;;;;;;;15.77;8.15;;;15.90;76.40;;;;;;10450225;28;20052;-56
2022/05/06 00:29:45;;;;;;;17.05;8.43;;;15.90;76.50;;;;;;10450083;28;20097;-55
2022/05/06 00:34:46;;;;;;;17.90;7.80;;;15.80;76.50;;;;;;10449719;28;20128;-54
2022/05/06 00:39:47;;;;;;;18.05;8.77;;;15.80;76.50;;;;;;10449484;28;20025;-56
2022/05/06 00:44:47;;;;;;;17.90;7.95;;;15.80;76.60;;;;;;10449151;28;20025;-55
2022/05/06 00:49:49;;;;;;;16.05;7.65;;;15.70;76.60;;;;;;10449041;28;20052;-55
2022/05/06 00:54:51;;;;;;;17.65;8.40;;;15.60;76.60;;;;;;10449498;28;20029;-56
2022/05/06 01:05:13;;;;;;;16.17;7.95;;;15.60;76.70;;;;;;10448807;28;20124;-56
2022/05/06 01:10:15;;;;;;;14.57;7.95;;;15.60;76.80;;;;;;10448135;28;20041;-55
2022/05/06 01:15:28;;;;;;;16.55;8.45;;;15.60;76.90;;;;;;10448165;28;20051;-55
2022/05/06 01:20:33;;;;;;;16.92;8.75;;;15.60;77.00;;;;;;10444984;28;20039;-56
2022/05/06 01:25:34;;;;;;;16.48;8.13;;;15.50;76.90;;;;;;10455795;28;20017;-57
2022/05/06 01:30:44;;;;;;;14.73;8.05;;;15.50;76.90;;;;;;10447769;28;20037;-55
2022/05/06 01:35:57;;;;;;;18.50;8.32;;;15.50;77.10;;;;;;10440700;28;20025;-56
2022/05/06 01:41:09;;;;;;;18.13;8.68;;;15.40;77.10;;;;;;10447903;28;20028;-56
2022/05/06 01:46:13;;;;;;;16.67;8.90;;;15.40;77.10;;;;;;10446913;28;20563;-56
2022/05/06 01:51:17;;;;;;;19.45;8.90;;;15.40;77.10;;;;;;10443429;28;20465;-55
2022/05/06 01:56:19;;;;;;;18.42;8.90;;;15.40;77.10;;;;;;10446480;28;20078;-55
2022/05/06 02:01:20;;;;;;;21.75;9.55;;;15.30;77.10;;;;;;10446613;28;20120;-57
2022/05/06 02:06:21;;;;;;;20.73;9.45;;;15.30;77.20;;;;;;10446300;28;20494;-55
2022/05/06 02:11:21;;;;;;;21.13;9.65;;;15.30;77.20;;;;;;10446199;28;20131;-55
2022/05/06 02:16:22;;;;;;;16.77;9.23;;;15.20;77.80;;;;;;10445690;28;20045;-55
2022/05/06 02:21:23;;;;;;;18.45;9.15;;;15.20;77.20;;;;;;10445344;28;20116;-55
2022/05/06 02:26:23;;;;;;;21.92;9.95;;;15.20;77.30;;;;;;10444812;28;20037;-55
2022/05/06 02:36:45;;;;;;;17.67;8.90;;;15.10;77.60;;;;;;10444730;28;20103;-56
2022/05/06 02:41:46;;;;;;;16.83;9.25;;;15.10;77.40;;;;;;10444688;28;20021;-55
2022/05/06 02:46:46;;;;;;;20.98;9.25;;;15.10;77.40;;;;;;10444622;28;20025;-56
2022/05/06 02:51:47;;;;;;;18.55;9.10;;;15.00;77.30;;;;;;10444640;28;20056;-53
2022/05/06 02:56:49;;;;;;;18.20;9.10;;;15.00;77.40;;;;;;10444905;28;20152;-56
2022/05/06 03:01:50;;;;;;;17.20;8.68;;;15.00;77.30;;;;;;10445045;28;20028;-55
2022/05/06 03:06:52;;;;;;;18.20;8.95;;;14.90;77.30;;;;;;10444733;28;20127;-56
2022/05/06 03:11:52;;;;;;;17.52;8.60;;;14.90;77.30;;;;;;10445387;28;20064;-56
2022/05/06 03:16:53;;;;;;;19.00;9.52;;;14.90;77.30;;;;;;10445801;28;20500;-54
2022/05/06 03:21:55;;;;;;;17.30;9.05;;;14.90;77.30;;;;;;10444058;28;20187;-54
2022/05/06 03:26:55;;;;;;;17.27;8.35;;;14.80;77.30;;;;;;10453778;28;20438;-57
2022/05/06 03:31:57;;;;;;;18.92;8.38;;;14.80;77.30;;;;;;10445221;28;20040;-54
2022/05/06 03:36:57;;;;;;;17.15;7.90;;;14.80;77.20;;;;;;10450862;28;20083;-55
2022/05/06 03:41:58;;;;;;;13.23;7.57;;;14.70;77.80;;;;;;10451907;28;20021;-55
2022/05/06 03:46:59;;;;;;;14.68;7.28;;;14.70;77.20;;;;;;10450893;28;20664;-55
2022/05/06 03:52:00;;;;;;;14.52;7.88;;;14.70;77.20;;;;;;10452136;28;20136;-56
2022/05/06 03:57:00;;;;;;;15.55;7.60;;;14.70;77.20;;;;;;10451200;28;20596;-56
2022/05/06 04:02:01;;;;;;;13.55;7.15;;;14.70;77.20;;;;;;10451458;28;20509;-55
2022/05/06 04:07:02;;;;;;;12.93;6.97;;;14.70;77.30;;;;;;10453959;28;20127;-56
2022/05/06 04:12:04;;;;;;;13.73;6.90;;;14.70;77.30;;;;;;10450668;28;20048;-57
2022/05/06 04:17:04;;;;;;;14.98;6.90;;;14.60;77.30;;;;;;10450550;28;20059;-55
2022/05/06 04:27:25;;;;;;;17.40;7.60;;;14.60;77.40;;;;;;10450294;28;20029;-57
2022/05/06 04:32:27;;;;;;;17.13;8.00;;;14.60;77.50;;;;;;10450831;28;20036;-55
2022/05/06 04:37:28;;;;;;;17.48;7.78;;;14.60;77.60;;;;;;10449980;28;20021;-56
2022/05/06 04:42:28;;;;;;;15.40;7.93;;;14.60;77.70;;;;;;10430210;28;20037;-56
2022/05/06 04:47:29;;;;;;;17.27;7.60;;;14.60;77.80;;;;;;10448940;28;20036;-55
2022/05/06 04:52:30;;;;;;;15.73;7.65;;;14.60;77.90;;;;;;10450127;28;20098;-55
2022/05/06 04:57:31;;;;;;;15.80;7.05;;;14.60;78.00;;;;;;10448906;28;20143;-55
2022/05/06 05:02:33;;;;;;;15.60;7.05;;;14.60;78.10;;;;;;10449420;28;20033;-53
2022/05/06 05:07:34;;;;;;;15.65;7.53;;;14.60;78.10;;;;;;10448980;28;20057;-52
2022/05/06 05:12:35;;;;;;;16.52;8.10;;;14.60;78.20;;;;;;10449563;28;20043;-55
2022/05/06 05:17:36;;;;;;;18.10;8.27;;;14.60;78.30;;;;;;10447878;28;20052;-56
2022/05/06 05:22:37;;;;;;;18.25;8.23;;;14.60;78.40;;;;;;10447958;28;20040;-55
2022/05/06 05:27:38;;;;;;;18.15;8.43;;;14.60;78.50;;;;;;10448317;28;20021;-54
2022/05/06 05:32:39;;;;;;;17.63;8.43;;;14.60;78.60;;;;;;10447532;28;20045;-55
2022/05/06 05:37:40;;;;;;;18.38;8.50;;;14.60;78.70;;;;;;10447513;28;20025;-56
2022/05/06 05:42:41;;;;;;;18.45;8.25;;;14.60;78.80;;;;;;10447656;28;20040;-55
2022/05/06 05:53:02;;;;;;;16.42;8.32;;;14.60;79.00;;;;;;10444336;28;20049;-54
2022/05/06 05:58:03;;;;;;;18.13;7.88;;;14.60;79.10;;;;;;10446567;28;20036;-55
2022/05/06 06:03:03;;;;;;;18.42;8.35;;;14.60;79.20;;;;;;10446954;28;20032;-54
2022/05/06 06:08:04;;;;;;;18.15;8.40;;;14.60;79.30;;;;;;10446483;28;20155;-56
2022/05/06 06:13:05;;;;;;;18.42;7.32;;;14.60;79.50;;;;;;10435556;28;20039;-55
2022/05/06 06:18:07;;;;;;;16.80;7.18;;;14.60;79.50;;;;;;10445895;28;20041;-53
2022/05/06 06:23:08;;;;;;;19.77;8.63;;;14.70;79.60;;;;;;10445909;28;20080;-55
2022/05/06 06:28:08;;;;;;;16.65;8.23;;;14.70;79.60;;;;;;10446005;28;20040;-55
2022/05/06 06:33:09;;;;;;;17.67;8.15;;;14.70;79.70;;;;;;10445434;28;20044;-54
2022/05/06 06:38:10;;;;;;;21.38;8.20;;;14.70;79.80;;;;;;10445349;28;20041;-55
2022/05/06 06:43:10;;;;;;;15.70;6.85;;;14.70;79.90;;;;;;10445264;28;20021;-55
2022/05/06 06:48:11;;;;;;;15.93;7.63;;;14.70;80.00;;;;;;10445096;28;20056;-54
2022/05/06 06:53:12;;;;;;;16.63;7.30;;;14.70;80.00;;;;;;10445101;28;20438;-54
2022/05/06 06:58:13;;;;;;;17.48;7.10;;;14.70;80.00;;;;;;10445189;28;20028;-55
2022/05/06 07:03:14;;;;;;;17.73;7.43;;;14.70;80.10;;;;;;10444567;28;20025;-54
2022/05/06 07:13:35;;;;;;;17.52;7.05;;;14.80;80.20;;;;;;10442910;28;20064;-53
2022/05/06 07:18:37;;;;;;;15.73;6.72;;;14.80;80.20;;;;;;10443862;28;20076;-53
2022/05/06 07:23:38;;;;;;;16.23;6.75;;;14.80;80.90;;;;;;10444056;28;20021;-55
2022/05/06 07:28:40;;;;;;;15.98;6.88;;;14.90;80.30;;;;;;10442857;28;20029;-56
2022/05/06 07:33:40;;;;;;;14.30;6.40;;;14.90;80.30;;;;;;10443710;28;20386;-58
2022/05/06 07:38:41;;;;;;;13.07;6.30;;;14.80;80.90;;;;;;10443459;28;20023;-54
2022/05/06 07:43:42;;;;;;;13.68;5.95;;;15.00;80.30;;;;;;10443705;28;20029;-54
2022/05/06 07:48:43;;;;;;;12.65;6.15;;;15.00;80.30;;;;;;10445068;28;20055;-54
2022/05/06 07:53:44;;;;;;;11.77;5.53;;;15.00;80.20;;;;;;10443834;28;20083;-53
2022/05/06 07:58:45;;;;;;;10.60;5.20;;;15.00;80.20;;;;;;10443381;28;20037;-55
2022/05/06 08:09:06;;;;;;;10.43;6.22;;;15.10;82.00;;;;;;10439576;28;20450;-54
2022/05/06 08:14:07;;;;;;;12.57;6.90;;;15.10;83.30;;;;;;10442182;28;20025;-54
2022/05/06 08:19:08;;;;;;;8.95;5.70;;;15.20;84.20;;;;;;10440896;28;20052;-54
2022/05/06 08:24:09;;;;;;;10.63;6.10;;;15.20;84.80;;;;;;10447848;28;20048;-55
2022/05/06 08:29:10;;;;;;;10.25;6.13;;;15.20;85.60;;;;;;10448433;28;20056;-54
2022/05/06 08:34:12;;;;;;;9.65;5.82;;;15.00;86.10;;;;;;10446122;28;20713;-55
2022/05/06 08:39:13;;;;;;;9.07;6.40;;;14.90;87.10;;;;;;10442241;28;20407;-55
2022/05/06 08:54:56;;;;;;;9.32;5.90;;;15.00;89.00;;;;;;10448167;28;20048;-54
2022/05/06 08:59:57;;;;;;;11.82;6.68;;;15.00;89.10;;;;;;10447341;28;20020;-55
2022/05/06 09:04:58;;;;;;;10.55;6.38;;;15.00;89.50;;;;;;10445951;28;20044;-54
2022/05/06 09:10:13;;;;;;;11.38;7.07;;;15.00;90.00;;;;;;10446788;28;20040;-54
2022/05/06 09:20:36;;;;;;;15.10;7.22;;;15.20;90.10;;;;;;10443993;28;20048;-54
2022/05/06 09:25:59;;;;;;;10.82;5.90;;;15.10;90.20;;;;;;10443055;28;20029;-54
2022/05/06 09:31:08;;;;;;;9.80;5.63;;;15.20;90.20;;;;;;10445418;28;20407;-54
2022/05/06 09:36:26;;;;;;;10.02;6.22;;;15.40;90.20;;;;;;10446536;28;20510;-53
2022/05/06 09:41:27;;;;;;;8.37;5.60;;;15.60;90.20;;;;;;10445686;28;20230;-52
2022/05/06 09:46:28;;;;;;;8.13;5.07;;;15.90;89.30;;;;;;10445321;28;20022;-54
2022/05/06 09:51:33;;;;;;;10.13;4.93;;;16.00;89.00;;;;;;10445267;28;20039;-51
2022/05/06 09:56:34;;;;;;;11.68;5.57;;;16.10;88.40;;;;;;10445036;28;20033;-54
2022/05/06 10:01:35;;;;;;;9.20;5.88;;;16.30;87.50;;;;;;10444815;28;20029;-52
2022/05/06 10:06:36;;;;;;;10.90;5.88;;;16.50;87.20;;;;;;10442871;28;20047;-57
2022/05/06 10:11:40;;;;;;;8.27;4.97;;;16.60;87.00;;;;;;10443231;28;20135;-56
2022/05/06 10:16:41;;;;;;;9.10;5.03;;;16.70;86.10;;;;;;10441340;28;20110;-55
2022/05/06 10:21:49;;;;;;;7.15;4.65;;;16.60;85.50;;;;;;10442494;28;20372;-56
2022/05/06 10:26:53;;;;;;;7.28;4.03;;;16.60;85.50;;;;;;10443299;28;20037;-56
2022/05/06 10:37:14;;;;;;;9.23;4.82;;;16.60;85.60;;;;;;10434510;28;20057;-55
2022/05/06 10:42:16;;;;;;;7.93;5.00;;;16.80;85.50;;;;;;10442956;28;20033;-55
2022/05/06 10:47:20;;;;;;;7.75;5.35;;;16.70;85.50;;;;;;10442621;28;20025;-55
2022/05/06 10:52:28;;;;;;;8.18;5.07;;;17.00;85.00;;;;;;10442880;28;20047;-56
2022/05/06 10:57:45;;;;;;;10.10;5.63;;;16.90;84.80;;;;;;10442879;28;20705;-55
2022/05/06 11:02:46;;;;;;;6.97;4.63;;;17.10;85.30;;;;;;10442955;28;20334;-55
2022/05/06 11:07:48;;;;;;;13.63;6.32;;;17.10;84.30;;;;;;10442817;28;20078;-56
2022/05/06 11:12:50;;;;;;;10.30;5.45;;;17.20;84.70;;;;;;10442108;28;20044;-54
2022/05/06 11:17:55;;;;;;;8.30;5.00;;;17.20;84.30;;;;;;10443910;28;20047;-55
2022/05/06 11:22:58;;;;;;;6.60;4.40;;;17.40;84.70;;;;;;10444013;28;20036;-54
2022/05/06 11:28:01;;;;;;;8.50;4.95;;;17.50;83.40;;;;;;10437526;28;20475;-55
2022/05/06 11:33:03;;;;;;;9.05;5.47;;;17.70;82.90;;;;;;10441454;28;20029;-54
2022/05/06 11:38:04;;;;;;;8.40;4.90;;;17.70;82.00;;;;;;10433974;28;20029;-58
2022/05/06 11:43:20;;;;;;;9.45;5.10;;;17.80;81.50;;;;;;10436507;28;20025;-56
2022/05/06 11:48:22;;;;;;;8.70;4.80;;;17.90;80.70;;;;;;10440191;28;20028;-57
2022/05/06 11:53:27;;;;;;;7.70;4.18;;;18.00;80.70;;;;;;10442810;28;20045;-55
2022/05/06 11:58:28;;;;;;;8.95;4.18;;;18.20;80.00;;;;;;10450601;28;20056;-57
2022/05/06 12:03:29;;;;;;;7.82;4.90;;;18.40;79.20;;;;;;10452229;28;20055;-58
2022/05/06 12:08:32;;;;;;;7.25;4.43;;;18.50;79.10;;;;;;10452265;28;20114;-58
2022/05/06 12:13:41;;;;;;;8.20;3.78;;;18.70;78.90;;;;;;10451535;28;20036;-57
2022/05/06 12:18:54;;;;;;;4.05;2.60;;;18.80;78.20;;;;;;10446076;28;20562;-56
2022/05/06 12:23:57;;;;;;;5.03;2.70;;;18.90;76.10;;;;;;10450155;28;20468;-58
2022/05/06 12:28:59;;;;;;;5.53;3.40;;;19.00;76.10;;;;;;10450181;28;20483;-58
2022/05/06 12:34:07;;;;;;;3.67;2.50;;;19.00;76.20;;;;;;10450670;28;20037;-58
2022/05/06 12:39:17;;;;;;;3.67;2.35;;;19.10;75.80;;;;;;10451929;28;20391;-59
2022/05/06 12:44:22;;;;;;;3.30;2.30;;;19.20;75.40;;;;;;10449625;28;20047;-60
2022/05/06 12:49:41;;;;;;;6.15;2.20;;;19.50;75.10;;;;;;10446250;28;20033;-57
2022/05/06 12:54:42;;;;;;;3.50;2.30;;;19.50;74.60;;;;;;10447098;28;20124;-59
2022/05/06 12:59:43;;;;;;;2.85;1.60;;;19.60;74.20;;;;;;10448690;28;20029;-60
2022/05/06 13:04:45;;;;;;;3.85;2.08;;;19.80;73.90;;;;;;10447720;28;20104;-59
2022/05/06 13:09:46;;;;;;;6.18;2.28;;;19.90;73.40;;;;;;10446019;28;20036;-60
2022/05/06 13:14:46;;;;;;;4.18;2.15;;;20.10;73.00;;;;;;10446547;28;20560;-60
2022/05/06 13:19:47;;;;;;;3.83;2.10;;;20.30;72.60;;;;;;10444202;28;20453;-60
2022/05/06 13:24:48;;;;;;;3.90;2.17;;;20.40;71.70;;;;;;10422291;28;20113;-59
2022/05/06 13:29:48;;;;;;;5.05;2.50;;;20.40;71.20;;;;;;10417046;28;20368;-59
2022/05/06 13:34:49;;;;;;;4.43;2.60;;;20.70;71.20;;;;;;10447664;28;20021;-60
2022/05/06 13:39:50;;;;;;;4.20;2.25;;;20.70;70.40;;;;;;10447720;28;20585;-60
2022/05/06 13:44:50;;;;;;;8.10;3.75;;;20.90;70.30;;;;;;10448159;28;20099;-59
2022/05/06 13:49:53;;;;;;;8.18;4.40;;;21.40;70.30;;;;;;10448004;28;20033;-60
2022/05/06 13:54:56;;;;;;;5.82;3.83;;;21.10;70.10;;;;;;10447828;28;20495;-59
2022/05/06 13:59:57;;;;;;;6.53;3.90;;;21.40;69.90;;;;;;10446719;28;20029;-60
2022/05/06 14:04:58;;;;;;;10.13;4.55;;;21.50;69.10;;;;;;10447196;28;20032;-59
2022/05/06 14:09:59;;;;;;;11.20;5.68;;;21.60;68.90;;;;;;10446794;28;20119;-58
2022/05/06 14:15:01;;;;;;;10.88;5.03;;;21.80;68.80;;;;;;10446887;28;20033;-60
2022/05/06 14:20:02;;;;;;;10.32;5.45;;;22.00;69.00;;;;;;10445498;28;20055;-59
2022/05/06 14:25:03;;;;;;;11.60;5.53;;;22.20;68.70;;;;;;10446236;28;20029;-60
2022/05/06 14:30:06;;;;;;;14.85;5.97;;;22.40;68.30;;;;;;10446037;28;20487;-59
2022/05/06 14:35:16;;;;;;;8.13;5.60;;;22.60;68.60;;;;;;10445226;28;20116;-56
2022/05/06 14:40:17;;;;;;;9.65;5.97;;;22.50;68.80;;;;;;10445238;28;20172;-57
2022/05/06 14:45:18;;;;;;;8.35;5.70;;;22.50;68.70;;;;;;10445385;28;20421;-59
2022/05/06 14:50:19;;;;;;;9.52;4.93;;;22.50;68.50;;;;;;10445523;28;20048;-58
2022/05/06 14:55:21;;;;;;;11.57;4.95;;;22.40;68.30;;;;;;10445419;28;20475;-58
2022/05/06 15:00:22;;;;;;;7.53;4.68;;;22.50;68.10;;;;;;10444679;28;20565;-57
2022/05/06 15:05:22;;;;;;;8.13;5.85;;;22.70;67.40;;;;;;10444848;28;20029;-58
2022/05/06 15:10:23;;;;;;;9.77;5.55;;;22.60;67.20;;;;;;10444094;28;20580;-58
2022/05/06 15:15:24;;;;;;;9.25;5.78;;;22.70;67.20;;;;;;10443759;28;20028;-58
2022/05/06 15:20:25;;;;;;;10.00;6.10;;;22.80;67.10;;;;;;10443892;28;20057;-58
2022/05/06 15:25:36;;;;;;;8.88;6.47;;;22.80;66.70;;;;;;10452408;28;20067;-59
2022/05/06 15:30:43;;;;;;;10.00;5.50;;;22.80;66.70;;;;;;10457847;28;20085;-61
2022/05/06 15:35:43;;;;;;;7.75;5.22;;;22.90;66.30;;;;;;10463604;28;20529;-59
2022/05/06 15:40:44;;;;;;;11.20;5.28;;;22.90;66.30;;;;;;10452751;28;20047;-59
2022/05/06 15:45:45;;;;;;;7.13;5.50;;;22.90;66.90;;;;;;10452134;28;20055;-60
2022/05/06 15:50:46;;;;;;;7.63;4.75;;;22.80;66.60;;;;;;10451966;28;20056;-57
2022/05/06 15:55:48;;;;;;;5.60;4.53;;;22.60;66.90;;;;;;10452474;28;20112;-59
2022/05/06 16:00:49;;;;;;;7.90;4.38;;;22.30;66.70;;;;;;10451091;28;20032;-60
2022/05/06 16:05:50;;;;;;;8.57;5.07;;;22.10;67.10;;;;;;10451799;28;20009;-59
2022/05/06 16:10:51;;;;;;;7.82;4.00;;;21.80;67.80;;;;;;10451331;28;20048;-61
2022/05/06 16:15:54;;;;;;;6.13;4.15;;;21.60;68.10;;;;;;10451571;28;20086;-61
2022/05/06 16:20:55;;;;;;;7.82;4.43;;;21.40;68.20;;;;;;10450227;28;20051;-61
2022/05/06 16:25:56;;;;;;;7.63;4.50;;;21.20;68.70;;;;;;10451382;28;20032;-59
2022/05/06 16:30:57;;;;;;;10.98;4.30;;;21.10;68.80;;;;;;10449899;28;20049;-61
2022/05/06 16:41:17;;;;;;;8.90;4.50;;;20.90;69.00;;;;;;10442207;28;20033;-58
2022/05/06 16:46:18;;;;;;;7.88;5.20;;;20.80;68.80;;;;;;10445127;28;20139;-61
2022/05/06 16:51:19;;;;;;;8.25;4.95;;;20.70;68.60;;;;;;10447786;28;20029;-59
2022/05/06 16:56:20;;;;;;;7.88;5.10;;;20.60;68.50;;;;;;10449579;28;20028;-56
2022/05/06 17:01:21;;;;;;;11.10;5.28;;;20.50;68.60;;;;;;10449357;28;20021;-55
2022/05/06 17:06:21;;;;;;;9.07;5.35;;;20.40;68.90;;;;;;10447386;28;20532;-59
2022/05/06 17:11:22;;;;;;;10.98;5.78;;;20.40;69.00;;;;;;10449461;28;20057;-59
2022/05/06 17:16:23;;;;;;;8.23;5.10;;;20.20;69.70;;;;;;10445106;28;20048;-60
2022/05/06 17:21:29;;;;;;;7.35;4.93;;;20.10;69.50;;;;;;10446297;28;20073;-56
2022/05/06 17:26:30;;;;;;;10.50;4.47;;;20.00;69.40;;;;;;10447927;28;20051;-55
2022/05/06 17:31:33;;;;;;;5.85;4.20;;;19.90;69.50;;;;;;10448497;28;20045;-56
2022/05/06 17:36:34;;;;;;;6.45;3.88;;;19.90;69.50;;;;;;10448246;28;20467;-56
2022/05/06 17:41:37;;;;;;;6.05;3.45;;;19.80;69.70;;;;;;10448327;28;20108;-57
2022/05/06 17:46:39;;;;;;;4.95;3.28;;;19.80;69.70;;;;;;10448324;28;20037;-59
2022/05/06 17:51:40;;;;;;;3.65;2.80;;;19.80;69.90;;;;;;10447331;28;20515;-57
2022/05/06 17:56:41;;;;;;;6.25;2.35;;;19.80;70.20;;;;;;10447193;28;20083;-56
2022/05/06 18:01:43;;;;;;;5.22;2.45;;;19.90;70.20;;;;;;10445466;28;20088;-60
2022/05/06 18:06:44;;;;;;;2.67;2.00;;;20.00;70.30;;;;;;10445080;28;20021;-57
2022/05/06 18:11:44;;;;;;;2.95;2.20;;;20.00;70.50;;;;;;10445587;28;20033;-60
2022/05/06 18:16:46;;;;;;;2.33;1.90;;;20.10;70.60;;;;;;10440955;28;20040;-55
2022/05/06 18:21:46;;;;;;;4.95;2.10;;;20.10;71.00;;;;;;10428714;28;20132;-58
2022/05/06 18:26:47;;;;;;;3.08;2.10;;;20.00;71.10;;;;;;10443183;28;20111;-57
2022/05/06 18:37:07;;;;;;;2.78;1.67;;;20.00;71.60;;;;;;10444051;28;20025;-56
2022/05/06 18:42:14;;;;;;;2.38;1.80;;;20.00;71.90;;;;;;10431039;28;20033;-58
2022/05/06 18:47:15;;;;;;;2.72;2.10;;;19.90;72.00;;;;;;10439259;28;20416;-56
2022/05/06 18:52:16;;;;;;;3.22;2.10;;;19.90;72.30;;;;;;10437828;28;20033;-58
2022/05/06 18:57:17;;;;;;;2.95;2.30;;;19.80;72.50;;;;;;10445890;28;20074;-59
2022/05/06 19:02:20;;;;;;;3.08;2.10;;;19.80;72.70;;;;;;10442032;28;20131;-60
2022/05/06 19:07:20;;;;;;;3.55;2.38;;;19.80;72.90;;;;;;10440806;28;20086;-60
2022/05/06 19:12:21;;;;;;;3.53;1.88;;;19.70;73.00;;;;;;10439294;28;20372;-57
2022/05/06 19:17:22;;;;;;;7.03;2.40;;;19.70;73.20;;;;;;10436182;28;20068;-59
2022/05/06 19:27:42;;;;;;;3.67;2.30;;;19.60;73.60;;;;;;10441766;28;20076;-58
2022/05/06 19:32:43;;;;;;;4.03;2.20;;;19.60;73.70;;;;;;10441814;28;20459;-57
2022/05/06 19:37:44;;;;;;;3.28;1.85;;;19.50;73.90;;;;;;10433961;28;20074;-59
2022/05/06 19:42:44;;;;;;;5.28;2.38;;;19.50;74.00;;;;;;10441937;28;20021;-59
2022/05/06 19:47:45;;;;;;;3.50;2.50;;;19.50;74.20;;;;;;10436519;28;20013;-56
2022/05/06 19:53:01;;;;;;;3.13;2.38;;;19.40;74.30;;;;;;10435478;28;20545;-59
2022/05/06 19:58:01;;;;;;;4.25;2.45;;;19.40;74.50;;;;;;10440317;28;20028;-58
2022/05/06 20:03:05;;;;;;;4.57;2.78;;;19.30;74.60;;;;;;10437028;28;20399;-59
2022/05/06 20:08:07;;;;;;;2.60;1.98;;;19.20;74.70;;;;;;10431091;28;20407;-58
2022/05/06 20:13:07;;;;;;;5.80;2.88;;;19.20;74.90;;;;;;10423239;28;20044;-57
2022/05/06 20:18:08;;;;;;;4.05;2.78;;;19.20;75.00;;;;;;10442874;28;20045;-56
2022/05/06 20:23:09;;;;;;;3.72;2.88;;;19.10;75.10;;;;;;10456416;28;20036;-59
2022/05/06 20:28:11;;;;;;;3.88;2.58;;;19.10;75.20;;;;;;10423306;28;20666;-60
2022/05/06 20:33:11;;;;;;;3.03;2.65;;;19.10;75.40;;;;;;10425684;28;20148;-57
2022/05/06 20:38:12;;;;;;;4.72;3.10;;;19.00;75.40;;;;;;10414137;28;20025;-60
2022/05/06 20:43:13;;;;;;;3.83;2.90;;;18.90;75.50;;;;;;10419934;28;20033;-59
2022/05/06 20:48:14;;;;;;;3.17;2.42;;;18.90;75.70;;;;;;10418229;28;20036;-58
2022/05/06 20:53:17;;;;;;;3.90;3.20;;;18.90;75.80;;;;;;10417055;28;20038;-58
2022/05/06 21:03:38;;;;;;;3.50;2.90;;;18.80;75.90;;;;;;10445606;28;20033;-59
2022/05/06 21:13:58;;;;;;;4.43;3.35;;;18.70;76.10;;;;;;10443956;28;20618;-58
2022/05/06 21:19:00;;;;;;;4.78;3.08;;;18.70;76.20;;;;;;10441086;28;20037;-58
2022/05/06 21:24:01;;;;;;;6.72;3.13;;;18.70;76.30;;;;;;10445263;28;20063;-57
2022/05/06 21:29:02;;;;;;;4.93;3.65;;;18.60;76.30;;;;;;10446556;28;20044;-56
2022/05/06 21:34:03;;;;;;;5.80;3.50;;;18.60;76.40;;;;;;10447680;28;20047;-57
2022/05/06 21:39:04;;;;;;;5.70;3.80;;;18.50;76.50;;;;;;10451839;28;20032;-58
2022/05/06 21:44:05;;;;;;;5.03;4.10;;;18.50;76.50;;;;;;10448741;28;20032;-57
2022/05/06 21:49:06;;;;;;;5.97;3.67;;;18.40;76.60;;;;;;10448736;28;20075;-59
2022/05/06 21:54:07;;;;;;;5.05;3.80;;;18.40;76.70;;;;;;10447004;28;20025;-59
2022/05/06 21:59:07;;;;;;;6.75;4.15;;;18.30;77.30;;;;;;10446848;28;20033;-57
2022/05/06 22:04:11;;;;;;;4.63;3.42;;;18.30;77.00;;;;;;10447021;28;20033;-58
2022/05/06 22:09:12;;;;;;;6.63;4.25;;;18.50;77.60;;;;;;10446504;28;20049;-59
2022/05/06 22:14:12;;;;;;;4.93;4.00;;;18.20;76.90;;;;;;10446498;28;20515;-59
2022/05/06 22:19:14;;;;;;;6.10;4.60;;;18.10;76.90;;;;;;10445947;28;20049;-56
2022/05/06 22:24:15;;;;;;;6.10;4.28;;;18.10;77.00;;;;;;10445579;28;20376;-57
2022/05/06 22:29:16;;;;;;;5.15;4.10;;;18.10;77.70;;;;;;10446167;28;20044;-58
2022/05/06 22:34:27;;;;;;;5.43;4.53;;;18.00;77.10;;;;;;10445724;28;20040;-57
2022/05/06 22:39:27;;;;;;;7.53;4.97;;;18.00;77.20;;;;;;10444804;28;20029;-58
2022/05/06 22:49:47;;;;;;;9.18;5.50;;;17.90;77.30;;;;;;10444835;28;20477;-59
2022/05/06 22:54:48;;;;;;;8.13;5.65;;;17.90;77.40;;;;;;10445223;28;20128;-58
2022/05/06 22:59:49;;;;;;;8.05;5.45;;;17.80;77.40;;;;;;10445331;28;20028;-55
2022/05/06 23:04:50;;;;;;;9.13;6.22;;;17.80;77.40;;;;;;10444981;28;20021;-58
2022/05/06 23:09:51;;;;;;;8.68;6.72;;;17.80;77.50;;;;;;10444483;28;20071;-58
2022/05/06 23:14:52;;;;;;;7.88;5.60;;;17.70;77.50;;;;;;10444693;28;20021;-56
2022/05/06 23:19:53;;;;;;;8.63;5.90;;;17.70;77.50;;;;;;10444034;28;20132;-58
2022/05/06 23:24:53;;;;;;;10.32;6.72;;;17.60;77.50;;;;;;10444295;28;20108;-58
2022/05/06 23:29:54;;;;;;;11.05;6.63;;;17.60;77.50;;;;;;10444644;28;20044;-57
2022/05/06 23:34:55;;;;;;;9.73;6.30;;;17.60;77.60;;;;;;10443758;28;20017;-57
2022/05/06 23:40:00;;;;;;;10.18;6.80;;;17.50;77.60;;;;;;10444290;28;20044;-55
2022/05/06 23:45:02;;;;;;;10.07;7.03;;;17.50;77.70;;;;;;10443947;28;20021;-58
2022/05/06 23:50:04;;;;;;;8.18;6.25;;;17.50;77.70;;;;;;10444691;28;20079;-58
2022/05/06 23:55:05;;;;;;;9.52;7.13;;;17.40;77.80;;;;;;10453695;28;20031;-55
